This is the latest recevied weather packets stored in our database for station/object N8WEL. If no packets are shown the sender has not sent any weather packets the latest 10 day(s).
| Time | Temp. | Humidity | Pressure | Rain* | Wind** | Luminosity | Snow |
|---|---|---|---|---|---|---|---|
| 1787648138 | 11.67° C | 97% | 1018.6 hPa | 0 mm | - | - | - |
| 1787647838 | 11.67° C | 97% | 1018.6 hPa | 0 mm | - | - | - |
| 1787647538 | 11.67° C | 97% | 1018.7 hPa | 0 mm | - | - | - |
| 1787647238 | 11.67° C | 97% | 1018.7 hPa | 0 mm | - | - | - |
| 1787646938 | 11.67° C | 97% | 1018.6 hPa | 0 mm | - | - | - |
| 1787646338 | 11.67° C | 97% | 1018.6 hPa | 0 mm | - | - | - |
| 1787645852 | 11.67° C | 97% | 1018.6 hPa | 0 mm | - | - | - |
| 1787645552 | 11.67° C | 97% | 1018.6 hPa | 0 mm | - | - | - |
| 1787645252 | 11.67° C | 97% | 1018.5 hPa | 0 mm | - | - | - |
| 1787644052 | 11.67° C | 96% | 1018.4 hPa | 0 mm | - | - | - |
| 1787643452 | 12.22° C | 96% | 1018.3 hPa | 0 mm | - | - | - |
| 1787642252 | 12.22° C | 96% | 1018.2 hPa | 0 mm | - | - | - |
| 1787641953 | 12.22° C | 96% | 1018.2 hPa | 0 mm | - | - | - |
| 1787641353 | 12.22° C | 96% | 1018 hPa | 0 mm | - | - | - |
| 1787641051 | 12.22° C | 96% | 1018 hPa | 0 mm | - | - | - |
| 1787640752 | 12.22° C | 96% | 1018 hPa | 0 mm | - | - | - |
| 1787637451 | 12.78° C | 96% | 1018.2 hPa | 0 mm | - | - | - |
| 1787635351 | 13.33° C | 95% | 1018.3 hPa | 0 mm | - | - | - |
| 1787634451 | 13.33° C | 95% | 1018.2 hPa | 0 mm | - | - | - |
| 1787633700 | 13.33° C | 95% | 1018.2 hPa | 0 mm | - | - | - |
| 1787596514 | 23.89° C | 51% | 1017.2 hPa | 0 mm | - | - | - |
| 1787574541 | 15.56° C | 88% | 1017.1 hPa | 0 mm | - | - | - |
| 1787572741 | 11.67° C | 97% | 1017 hPa | 0 mm | - | - | - |
| 1787572441 | 11.11° C | 97% | 1017 hPa | 0 mm | - | - | - |
| 1787572141 | - | - | 1017 hPa | 0 mm | - | - | - |
* Rain latest hour (hover to see other rain measurements)
** Current wind speed in m/s (hover to see current wind gust speed)